sensor_id;sensor_type;location;lat;lon;timestamp;P1;durP1;ratioP1;P2;durP2;ratioP2
1296;SDS011;641;48.492;9.184;2023-12-20T00:00:19;8.07;;;2.70;;
1296;SDS011;641;48.492;9.184;2023-12-20T00:02:45;7.67;;;2.97;;
1296;SDS011;641;48.492;9.184;2023-12-20T00:05:12;7.93;;;2.80;;
1296;SDS011;641;48.492;9.184;2023-12-20T00:07:38;9.40;;;2.90;;
1296;SDS011;641;48.492;9.184;2023-12-20T00:10:04;7.80;;;2.77;;
1296;SDS011;641;48.492;9.184;2023-12-20T00:12:30;12.73;;;3.57;;
1296;SDS011;641;48.492;9.184;2023-12-20T00:14:55;7.83;;;2.90;;
1296;SDS011;641;48.492;9.184;2023-12-20T00:17:21;8.70;;;3.00;;
1296;SDS011;641;48.492;9.184;2023-12-20T00:19:46;9.77;;;3.70;;
1296;SDS011;641;48.492;9.184;2023-12-20T00:22:12;9.20;;;3.30;;
1296;SDS011;641;48.492;9.184;2023-12-20T00:24:38;8.50;;;2.93;;
1296;SDS011;641;48.492;9.184;2023-12-20T00:27:03;7.90;;;2.63;;
1296;SDS011;641;48.492;9.184;2023-12-20T00:29:29;9.30;;;3.30;;
1296;SDS011;641;48.492;9.184;2023-12-20T00:31:54;7.10;;;2.27;;
1296;SDS011;641;48.492;9.184;2023-12-20T00:34:20;7.83;;;2.40;;
1296;SDS011;641;48.492;9.184;2023-12-20T00:36:46;7.70;;;2.03;;
1296;SDS011;641;48.492;9.184;2023-12-20T00:39:12;7.07;;;3.20;;
1296;SDS011;641;48.492;9.184;2023-12-20T00:41:37;7.70;;;1.80;;
1296;SDS011;641;48.492;9.184;2023-12-20T00:44:03;8.43;;;2.03;;
1296;SDS011;641;48.492;9.184;2023-12-20T00:46:29;6.17;;;1.70;;
1296;SDS011;641;48.492;9.184;2023-12-20T00:48:55;5.80;;;1.40;;
1296;SDS011;641;48.492;9.184;2023-12-20T00:51:20;5.90;;;1.53;;
1296;SDS011;641;48.492;9.184;2023-12-20T00:53:47;7.43;;;1.70;;
1296;SDS011;641;48.492;9.184;2023-12-20T00:56:15;6.33;;;1.43;;
1296;SDS011;641;48.492;9.184;2023-12-20T00:58:40;6.80;;;1.80;;
1296;SDS011;641;48.492;9.184;2023-12-20T01:01:06;6.33;;;1.50;;
1296;SDS011;641;48.492;9.184;2023-12-20T01:03:31;6.37;;;1.50;;
1296;SDS011;641;48.492;9.184;2023-12-20T01:05:57;7.50;;;1.60;;
1296;SDS011;641;48.492;9.184;2023-12-20T01:08:22;5.80;;;1.47;;
1296;SDS011;641;48.492;9.184;2023-12-20T01:10:48;7.20;;;1.30;;
1296;SDS011;641;48.492;9.184;2023-12-20T01:13:14;6.80;;;1.40;;
1296;SDS011;641;48.492;9.184;2023-12-20T01:15:39;7.03;;;1.40;;
1296;SDS011;641;48.492;9.184;2023-12-20T01:18:05;6.10;;;1.00;;
1296;SDS011;641;48.492;9.184;2023-12-20T01:20:30;5.40;;;0.97;;
1296;SDS011;641;48.492;9.184;2023-12-20T01:22:56;5.50;;;0.70;;
1296;SDS011;641;48.492;9.184;2023-12-20T01:25:22;6.10;;;1.30;;
1296;SDS011;641;48.492;9.184;2023-12-20T01:27:47;6.17;;;1.20;;
1296;SDS011;641;48.492;9.184;2023-12-20T01:30:13;5.60;;;0.87;;
1296;SDS011;641;48.492;9.184;2023-12-20T01:32:39;6.13;;;0.90;;
1296;SDS011;641;48.492;9.184;2023-12-20T01:35:05;5.50;;;1.07;;
1296;SDS011;641;48.492;9.184;2023-12-20T01:37:31;6.30;;;1.20;;
1296;SDS011;641;48.492;9.184;2023-12-20T01:39:56;6.40;;;1.23;;
1296;SDS011;641;48.492;9.184;2023-12-20T01:42:23;6.40;;;1.20;;
1296;SDS011;641;48.492;9.184;2023-12-20T01:44:49;6.03;;;1.37;;
1296;SDS011;641;48.492;9.184;2023-12-20T01:47:14;5.90;;;1.30;;
1296;SDS011;641;48.492;9.184;2023-12-20T01:49:41;5.43;;;1.00;;
1296;SDS011;641;48.492;9.184;2023-12-20T01:52:06;5.30;;;1.03;;
1296;SDS011;641;48.492;9.184;2023-12-20T01:54:34;5.27;;;1.00;;
1296;SDS011;641;48.492;9.184;2023-12-20T01:57:00;6.10;;;1.10;;
1296;SDS011;641;48.492;9.184;2023-12-20T01:59:27;5.50;;;1.03;;
1296;SDS011;641;48.492;9.184;2023-12-20T02:01:54;7.53;;;1.20;;
1296;SDS011;641;48.492;9.184;2023-12-20T02:04:20;5.57;;;0.90;;
1296;SDS011;641;48.492;9.184;2023-12-20T02:06:46;6.30;;;1.30;;
1296;SDS011;641;48.492;9.184;2023-12-20T02:09:11;6.47;;;1.00;;
1296;SDS011;641;48.492;9.184;2023-12-20T02:11:37;5.80;;;1.00;;
1296;SDS011;641;48.492;9.184;2023-12-20T02:14:03;6.77;;;1.10;;
1296;SDS011;641;48.492;9.184;2023-12-20T02:16:28;5.50;;;0.90;;
1296;SDS011;641;48.492;9.184;2023-12-20T02:18:54;10.43;;;1.37;;
1296;SDS011;641;48.492;9.184;2023-12-20T02:21:24;5.70;;;1.10;;
1296;SDS011;641;48.492;9.184;2023-12-20T02:23:50;7.07;;;1.20;;
1296;SDS011;641;48.492;9.184;2023-12-20T02:26:16;5.53;;;0.90;;
1296;SDS011;641;48.492;9.184;2023-12-20T02:28:41;6.80;;;1.47;;
1296;SDS011;641;48.492;9.184;2023-12-20T02:31:07;6.00;;;1.20;;
1296;SDS011;641;48.492;9.184;2023-12-20T02:33:33;7.53;;;1.10;;
1296;SDS011;641;48.492;9.184;2023-12-20T02:35:58;9.43;;;0.80;;
1296;SDS011;641;48.492;9.184;2023-12-20T02:38:24;5.73;;;1.03;;
1296;SDS011;641;48.492;9.184;2023-12-20T02:40:49;5.63;;;0.80;;
1296;SDS011;641;48.492;9.184;2023-12-20T02:43:15;6.30;;;0.90;;
1296;SDS011;641;48.492;9.184;2023-12-20T02:45:40;5.53;;;1.07;;
1296;SDS011;641;48.492;9.184;2023-12-20T02:48:06;5.27;;;0.80;;
1296;SDS011;641;48.492;9.184;2023-12-20T02:50:32;5.13;;;0.73;;
1296;SDS011;641;48.492;9.184;2023-12-20T02:52:57;5.30;;;1.00;;
1296;SDS011;641;48.492;9.184;2023-12-20T02:55:23;5.17;;;0.90;;
1296;SDS011;641;48.492;9.184;2023-12-20T02:57:48;5.50;;;1.10;;
1296;SDS011;641;48.492;9.184;2023-12-20T03:00:14;5.37;;;1.00;;
1296;SDS011;641;48.492;9.184;2023-12-20T03:02:39;6.03;;;1.10;;
1296;SDS011;641;48.492;9.184;2023-12-20T03:05:05;5.20;;;1.00;;
1296;SDS011;641;48.492;9.184;2023-12-20T03:07:31;7.30;;;1.30;;
1296;SDS011;641;48.492;9.184;2023-12-20T03:09:57;5.40;;;0.80;;
1296;SDS011;641;48.492;9.184;2023-12-20T03:12:22;5.57;;;1.30;;
1296;SDS011;641;48.492;9.184;2023-12-20T03:14:48;6.40;;;1.30;;
1296;SDS011;641;48.492;9.184;2023-12-20T03:17:14;5.63;;;0.90;;
1296;SDS011;641;48.492;9.184;2023-12-20T03:19:40;5.90;;;1.20;;
1296;SDS011;641;48.492;9.184;2023-12-20T03:22:05;5.30;;;0.90;;
1296;SDS011;641;48.492;9.184;2023-12-20T03:24:31;5.40;;;0.70;;
1296;SDS011;641;48.492;9.184;2023-12-20T03:26:56;5.10;;;0.80;;
1296;SDS011;641;48.492;9.184;2023-12-20T03:29:22;6.43;;;0.83;;
1296;SDS011;641;48.492;9.184;2023-12-20T03:31:47;5.50;;;0.93;;
1296;SDS011;641;48.492;9.184;2023-12-20T03:34:13;5.20;;;0.93;;
1296;SDS011;641;48.492;9.184;2023-12-20T03:36:38;5.93;;;0.87;;
1296;SDS011;641;48.492;9.184;2023-12-20T03:39:05;5.20;;;1.00;;
1296;SDS011;641;48.492;9.184;2023-12-20T03:41:30;6.93;;;1.03;;
1296;SDS011;641;48.492;9.184;2023-12-20T03:43:56;5.50;;;1.00;;
1296;SDS011;641;48.492;9.184;2023-12-20T03:46:21;4.90;;;0.70;;
1296;SDS011;641;48.492;9.184;2023-12-20T03:48:47;5.53;;;1.00;;
1296;SDS011;641;48.492;9.184;2023-12-20T03:51:12;5.30;;;0.90;;
1296;SDS011;641;48.492;9.184;2023-12-20T03:53:38;5.53;;;1.00;;
1296;SDS011;641;48.492;9.184;2023-12-20T03:56:05;5.50;;;1.23;;
1296;SDS011;641;48.492;9.184;2023-12-20T03:58:31;7.20;;;1.30;;
1296;SDS011;641;48.492;9.184;2023-12-20T04:00:56;5.70;;;0.90;;
1296;SDS011;641;48.492;9.184;2023-12-20T04:03:22;5.53;;;0.80;;
1296;SDS011;641;48.492;9.184;2023-12-20T04:05:47;5.40;;;1.07;;
1296;SDS011;641;48.492;9.184;2023-12-20T04:08:13;6.73;;;0.83;;
1296;SDS011;641;48.492;9.184;2023-12-20T04:10:39;5.00;;;0.70;;
1296;SDS011;641;48.492;9.184;2023-12-20T04:13:04;5.60;;;0.80;;
1296;SDS011;641;48.492;9.184;2023-12-20T04:15:30;5.10;;;0.70;;
1296;SDS011;641;48.492;9.184;2023-12-20T04:17:55;5.87;;;0.80;;
1296;SDS011;641;48.492;9.184;2023-12-20T04:20:21;5.17;;;0.83;;
1296;SDS011;641;48.492;9.184;2023-12-20T04:22:46;5.63;;;0.67;;
1296;SDS011;641;48.492;9.184;2023-12-20T04:25:12;5.03;;;0.67;;
1296;SDS011;641;48.492;9.184;2023-12-20T04:27:37;5.60;;;0.50;;
1296;SDS011;641;48.492;9.184;2023-12-20T04:30:03;4.90;;;0.70;;
1296;SDS011;641;48.492;9.184;2023-12-20T04:32:29;5.70;;;0.50;;
1296;SDS011;641;48.492;9.184;2023-12-20T04:34:55;4.73;;;0.50;;
1296;SDS011;641;48.492;9.184;2023-12-20T04:37:20;5.23;;;0.80;;
1296;SDS011;641;48.492;9.184;2023-12-20T04:39:46;5.13;;;0.70;;
1296;SDS011;641;48.492;9.184;2023-12-20T04:42:11;4.90;;;0.57;;
1296;SDS011;641;48.492;9.184;2023-12-20T04:44:37;4.70;;;0.50;;
1296;SDS011;641;48.492;9.184;2023-12-20T04:47:02;4.87;;;0.50;;
1296;SDS011;641;48.492;9.184;2023-12-20T04:49:28;5.07;;;0.53;;
1296;SDS011;641;48.492;9.184;2023-12-20T04:51:54;4.67;;;0.50;;
1296;SDS011;641;48.492;9.184;2023-12-20T04:54:20;4.80;;;0.50;;
1296;SDS011;641;48.492;9.184;2023-12-20T04:56:46;5.40;;;0.60;;
1296;SDS011;641;48.492;9.184;2023-12-20T04:59:12;5.47;;;0.70;;
1296;SDS011;641;48.492;9.184;2023-12-20T05:01:38;4.70;;;0.40;;
1296;SDS011;641;48.492;9.184;2023-12-20T05:04:04;5.00;;;0.60;;
1296;SDS011;641;48.492;9.184;2023-12-20T05:06:29;4.90;;;0.53;;
1296;SDS011;641;48.492;9.184;2023-12-20T05:08:55;7.30;;;0.70;;
1296;SDS011;641;48.492;9.184;2023-12-20T05:11:20;4.80;;;0.47;;
1296;SDS011;641;48.492;9.184;2023-12-20T05:13:46;5.87;;;0.40;;
1296;SDS011;641;48.492;9.184;2023-12-20T05:16:11;4.80;;;0.40;;
1296;SDS011;641;48.492;9.184;2023-12-20T05:18:39;4.80;;;0.40;;
1296;SDS011;641;48.492;9.184;2023-12-20T05:21:04;4.90;;;0.50;;
1296;SDS011;641;48.492;9.184;2023-12-20T05:23:30;5.00;;;0.40;;
1296;SDS011;641;48.492;9.184;2023-12-20T05:25:55;4.77;;;0.40;;
1296;SDS011;641;48.492;9.184;2023-12-20T05:28:21;4.90;;;0.53;;
1296;SDS011;641;48.492;9.184;2023-12-20T05:30:46;4.70;;;0.40;;
1296;SDS011;641;48.492;9.184;2023-12-20T05:33:12;4.93;;;0.60;;
1296;SDS011;641;48.492;9.184;2023-12-20T05:35:37;4.80;;;0.50;;
1296;SDS011;641;48.492;9.184;2023-12-20T05:38:03;5.50;;;0.60;;
1296;SDS011;641;48.492;9.184;2023-12-20T05:40:28;4.80;;;0.40;;
1296;SDS011;641;48.492;9.184;2023-12-20T05:42:54;4.63;;;0.30;;
1296;SDS011;641;48.492;9.184;2023-12-20T05:45:19;4.90;;;0.40;;
1296;SDS011;641;48.492;9.184;2023-12-20T05:47:45;4.70;;;0.40;;
1296;SDS011;641;48.492;9.184;2023-12-20T05:50:11;4.80;;;0.40;;
1296;SDS011;641;48.492;9.184;2023-12-20T05:52:36;4.67;;;0.30;;
1296;SDS011;641;48.492;9.184;2023-12-20T05:55:02;4.87;;;0.50;;
1296;SDS011;641;48.492;9.184;2023-12-20T05:57:28;4.70;;;0.40;;
1296;SDS011;641;48.492;9.184;2023-12-20T05:59:53;4.77;;;0.60;;
1296;SDS011;641;48.492;9.184;2023-12-20T06:02:19;4.83;;;0.33;;
1296;SDS011;641;48.492;9.184;2023-12-20T06:04:44;4.90;;;0.40;;
1296;SDS011;641;48.492;9.184;2023-12-20T06:07:13;4.70;;;0.40;;
1296;SDS011;641;48.492;9.184;2023-12-20T06:09:39;4.77;;;0.40;;
1296;SDS011;641;48.492;9.184;2023-12-20T06:12:05;4.93;;;0.57;;
1296;SDS011;641;48.492;9.184;2023-12-20T06:14:31;4.90;;;0.47;;
1296;SDS011;641;48.492;9.184;2023-12-20T06:16:57;4.90;;;0.40;;
1296;SDS011;641;48.492;9.184;2023-12-20T06:19:23;4.80;;;0.50;;
1296;SDS011;641;48.492;9.184;2023-12-20T06:21:48;4.70;;;0.40;;
1296;SDS011;641;48.492;9.184;2023-12-20T06:24:14;5.00;;;0.53;;
1296;SDS011;641;48.492;9.184;2023-12-20T06:26:39;4.70;;;0.30;;
1296;SDS011;641;48.492;9.184;2023-12-20T06:29:05;5.30;;;0.80;;
1296;SDS011;641;48.492;9.184;2023-12-20T06:31:30;4.80;;;0.40;;
1296;SDS011;641;48.492;9.184;2023-12-20T06:33:58;4.90;;;0.50;;
1296;SDS011;641;48.492;9.184;2023-12-20T06:36:24;4.70;;;0.40;;
1296;SDS011;641;48.492;9.184;2023-12-20T06:38:51;5.00;;;0.50;;
1296;SDS011;641;48.492;9.184;2023-12-20T06:41:16;5.30;;;0.50;;
1296;SDS011;641;48.492;9.184;2023-12-20T06:43:42;5.50;;;0.40;;
1296;SDS011;641;48.492;9.184;2023-12-20T06:46:08;4.70;;;0.37;;
1296;SDS011;641;48.492;9.184;2023-12-20T06:48:33;4.80;;;0.53;;
1296;SDS011;641;48.492;9.184;2023-12-20T06:51:00;4.70;;;0.30;;
1296;SDS011;641;48.492;9.184;2023-12-20T06:53:27;4.80;;;0.40;;
1296;SDS011;641;48.492;9.184;2023-12-20T06:55:52;4.90;;;0.53;;
1296;SDS011;641;48.492;9.184;2023-12-20T06:58:18;5.20;;;0.50;;
1296;SDS011;641;48.492;9.184;2023-12-20T07:00:44;4.80;;;0.53;;
1296;SDS011;641;48.492;9.184;2023-12-20T07:03:09;4.80;;;0.40;;
1296;SDS011;641;48.492;9.184;2023-12-20T07:05:35;4.67;;;0.33;;
1296;SDS011;641;48.492;9.184;2023-12-20T07:08:00;4.70;;;0.50;;
1296;SDS011;641;48.492;9.184;2023-12-20T07:10:26;4.80;;;0.53;;
1296;SDS011;641;48.492;9.184;2023-12-20T07:12:51;4.77;;;0.37;;
1296;SDS011;641;48.492;9.184;2023-12-20T07:15:20;4.90;;;0.47;;
1296;SDS011;641;48.492;9.184;2023-12-20T07:17:46;4.90;;;0.40;;
1296;SDS011;641;48.492;9.184;2023-12-20T07:20:11;5.87;;;0.43;;
1296;SDS011;641;48.492;9.184;2023-12-20T07:22:37;5.40;;;0.50;;
1296;SDS011;641;48.492;9.184;2023-12-20T07:25:03;4.83;;;0.40;;
1296;SDS011;641;48.492;9.184;2023-12-20T07:27:29;4.93;;;0.50;;
1296;SDS011;641;48.492;9.184;2023-12-20T07:29:54;5.10;;;0.50;;
1296;SDS011;641;48.492;9.184;2023-12-20T07:32:20;4.77;;;0.40;;
1296;SDS011;641;48.492;9.184;2023-12-20T07:34:45;5.00;;;0.53;;
1296;SDS011;641;48.492;9.184;2023-12-20T07:37:11;4.90;;;0.40;;
1296;SDS011;641;48.492;9.184;2023-12-20T07:39:40;4.80;;;0.50;;
1296;SDS011;641;48.492;9.184;2023-12-20T07:42:06;5.20;;;0.50;;
1296;SDS011;641;48.492;9.184;2023-12-20T07:44:35;5.00;;;0.60;;
1296;SDS011;641;48.492;9.184;2023-12-20T07:47:01;5.20;;;0.73;;
1296;SDS011;641;48.492;9.184;2023-12-20T07:49:26;5.53;;;0.83;;
1296;SDS011;641;48.492;9.184;2023-12-20T07:51:52;5.10;;;0.60;;
1296;SDS011;641;48.492;9.184;2023-12-20T07:54:17;5.47;;;0.93;;
1296;SDS011;641;48.492;9.184;2023-12-20T07:56:43;6.43;;;1.17;;
1296;SDS011;641;48.492;9.184;2023-12-20T07:59:10;5.50;;;0.80;;
1296;SDS011;641;48.492;9.184;2023-12-20T08:01:35;5.20;;;0.70;;
1296;SDS011;641;48.492;9.184;2023-12-20T08:04:01;5.23;;;0.80;;
1296;SDS011;641;48.492;9.184;2023-12-20T08:06:26;5.33;;;0.93;;
1296;SDS011;641;48.492;9.184;2023-12-20T08:08:52;6.37;;;1.33;;
1296;SDS011;641;48.492;9.184;2023-12-20T08:11:17;5.23;;;0.90;;
1296;SDS011;641;48.492;9.184;2023-12-20T08:13:43;6.13;;;0.70;;
1296;SDS011;641;48.492;9.184;2023-12-20T08:16:09;5.30;;;0.67;;
1296;SDS011;641;48.492;9.184;2023-12-20T08:18:34;5.57;;;0.93;;
1296;SDS011;641;48.492;9.184;2023-12-20T08:21:00;5.37;;;0.70;;
1296;SDS011;641;48.492;9.184;2023-12-20T08:23:26;6.60;;;0.90;;
1296;SDS011;641;48.492;9.184;2023-12-20T08:25:52;5.33;;;0.83;;
1296;SDS011;641;48.492;9.184;2023-12-20T08:28:17;6.03;;;0.90;;
1296;SDS011;641;48.492;9.184;2023-12-20T08:30:43;9.37;;;2.97;;
1296;SDS011;641;48.492;9.184;2023-12-20T08:33:08;6.83;;;1.97;;
1296;SDS011;641;48.492;9.184;2023-12-20T08:35:37;5.83;;;0.90;;
1296;SDS011;641;48.492;9.184;2023-12-20T08:38:03;5.50;;;0.73;;
1296;SDS011;641;48.492;9.184;2023-12-20T08:40:29;5.70;;;1.10;;
1296;SDS011;641;48.492;9.184;2023-12-20T08:42:55;5.30;;;1.20;;
1296;SDS011;641;48.492;9.184;2023-12-20T08:45:20;5.70;;;0.90;;
1296;SDS011;641;48.492;9.184;2023-12-20T08:47:46;5.77;;;1.13;;
1296;SDS011;641;48.492;9.184;2023-12-20T08:50:12;6.67;;;1.00;;
1296;SDS011;641;48.492;9.184;2023-12-20T08:52:37;5.50;;;1.03;;
1296;SDS011;641;48.492;9.184;2023-12-20T08:55:03;6.70;;;1.20;;
1296;SDS011;641;48.492;9.184;2023-12-20T08:57:29;5.67;;;1.13;;
1296;SDS011;641;48.492;9.184;2023-12-20T08:59:56;6.17;;;1.43;;
1296;SDS011;641;48.492;9.184;2023-12-20T09:02:22;6.10;;;1.30;;
1296;SDS011;641;48.492;9.184;2023-12-20T09:04:48;5.43;;;0.93;;
1296;SDS011;641;48.492;9.184;2023-12-20T09:07:23;5.20;;;0.80;;
1296;SDS011;641;48.492;9.184;2023-12-20T09:09:50;5.50;;;0.80;;
1296;SDS011;641;48.492;9.184;2023-12-20T09:12:17;5.47;;;0.87;;
1296;SDS011;641;48.492;9.184;2023-12-20T09:14:47;5.20;;;0.80;;
1296;SDS011;641;48.492;9.184;2023-12-20T09:17:13;5.23;;;0.83;;
1296;SDS011;641;48.492;9.184;2023-12-20T09:19:40;5.60;;;0.80;;
1296;SDS011;641;48.492;9.184;2023-12-20T09:22:06;5.43;;;1.07;;
1296;SDS011;641;48.492;9.184;2023-12-20T09:24:32;5.13;;;0.83;;
1296;SDS011;641;48.492;9.184;2023-12-20T09:26:58;6.53;;;1.40;;
1296;SDS011;641;48.492;9.184;2023-12-20T09:29:23;6.93;;;1.20;;
1296;SDS011;641;48.492;9.184;2023-12-20T09:31:49;7.60;;;1.80;;
1296;SDS011;641;48.492;9.184;2023-12-20T09:34:15;9.07;;;2.03;;
1296;SDS011;641;48.492;9.184;2023-12-20T09:36:42;7.10;;;1.50;;
1296;SDS011;641;48.492;9.184;2023-12-20T09:39:15;7.47;;;2.00;;
1296;SDS011;641;48.492;9.184;2023-12-20T09:41:46;7.37;;;1.70;;
1296;SDS011;641;48.492;9.184;2023-12-20T09:44:22;7.47;;;2.00;;
1296;SDS011;641;48.492;9.184;2023-12-20T09:46:49;9.63;;;1.63;;
1296;SDS011;641;48.492;9.184;2023-12-20T09:49:18;9.40;;;1.90;;
1296;SDS011;641;48.492;9.184;2023-12-20T09:51:45;7.20;;;1.90;;
1296;SDS011;641;48.492;9.184;2023-12-20T09:54:12;8.47;;;2.70;;
1296;SDS011;641;48.492;9.184;2023-12-20T09:56:42;9.90;;;2.00;;
1296;SDS011;641;48.492;9.184;2023-12-20T09:59:08;6.20;;;1.63;;
1296;SDS011;641;48.492;9.184;2023-12-20T10:01:34;11.20;;;2.00;;
1296;SDS011;641;48.492;9.184;2023-12-20T10:04:01;7.07;;;1.70;;
1296;SDS011;641;48.492;9.184;2023-12-20T10:06:33;7.53;;;1.93;;
1296;SDS011;641;48.492;9.184;2023-12-20T10:09:02;6.13;;;1.43;;
1296;SDS011;641;48.492;9.184;2023-12-20T10:11:29;8.13;;;1.80;;
1296;SDS011;641;48.492;9.184;2023-12-20T10:14:01;5.93;;;1.37;;
1296;SDS011;641;48.492;9.184;2023-12-20T10:16:26;7.17;;;2.00;;
1296;SDS011;641;48.492;9.184;2023-12-20T10:18:53;8.93;;;1.50;;
1296;SDS011;641;48.492;9.184;2023-12-20T10:21:19;8.17;;;1.80;;
1296;SDS011;641;48.492;9.184;2023-12-20T10:23:45;8.23;;;1.90;;
1296;SDS011;641;48.492;9.184;2023-12-20T10:26:18;8.20;;;1.87;;
1296;SDS011;641;48.492;9.184;2023-12-20T10:28:46;6.90;;;2.07;;
1296;SDS011;641;48.492;9.184;2023-12-20T10:31:30;10.03;;;1.97;;
1296;SDS011;641;48.492;9.184;2023-12-20T10:33:57;8.07;;;2.17;;
1296;SDS011;641;48.492;9.184;2023-12-20T10:36:25;8.50;;;1.93;;
1296;SDS011;641;48.492;9.184;2023-12-20T10:38:52;9.57;;;1.73;;
1296;SDS011;641;48.492;9.184;2023-12-20T10:41:19;12.20;;;1.77;;
1296;SDS011;641;48.492;9.184;2023-12-20T10:43:52;9.30;;;2.43;;
1296;SDS011;641;48.492;9.184;2023-12-20T10:46:23;7.60;;;1.70;;
1296;SDS011;641;48.492;9.184;2023-12-20T10:48:51;8.60;;;1.90;;
1296;SDS011;641;48.492;9.184;2023-12-20T10:51:19;6.60;;;1.60;;
1296;SDS011;641;48.492;9.184;2023-12-20T10:53:47;9.33;;;1.60;;
1296;SDS011;641;48.492;9.184;2023-12-20T10:56:15;10.47;;;1.73;;
1296;SDS011;641;48.492;9.184;2023-12-20T10:58:43;7.00;;;1.93;;
1296;SDS011;641;48.492;9.184;2023-12-20T11:01:09;8.00;;;1.67;;
1296;SDS011;641;48.492;9.184;2023-12-20T11:03:37;5.70;;;0.93;;
1296;SDS011;641;48.492;9.184;2023-12-20T11:06:10;6.53;;;1.20;;
1296;SDS011;641;48.492;9.184;2023-12-20T11:09:28;6.67;;;1.40;;
1296;SDS011;641;48.492;9.184;2023-12-20T11:12:13;8.73;;;1.40;;
1296;SDS011;641;48.492;9.184;2023-12-20T11:14:50;6.03;;;1.13;;
1296;SDS011;641;48.492;9.184;2023-12-20T11:17:17;6.80;;;1.13;;
1296;SDS011;641;48.492;9.184;2023-12-20T11:22:18;6.47;;;1.10;;
1296;SDS011;641;48.492;9.184;2023-12-20T11:24:45;7.83;;;1.33;;
1296;SDS011;641;48.492;9.184;2023-12-20T11:27:12;6.23;;;1.13;;
1296;SDS011;641;48.492;9.184;2023-12-20T11:29:38;6.07;;;0.93;;
1296;SDS011;641;48.492;9.184;2023-12-20T11:34:50;6.70;;;1.10;;
1296;SDS011;641;48.492;9.184;2023-12-20T11:37:19;6.30;;;1.30;;
1296;SDS011;641;48.492;9.184;2023-12-20T11:39:45;7.43;;;1.40;;
1296;SDS011;641;48.492;9.184;2023-12-20T11:42:18;7.20;;;1.30;;
1296;SDS011;641;48.492;9.184;2023-12-20T11:44:45;6.30;;;1.17;;
1296;SDS011;641;48.492;9.184;2023-12-20T11:47:11;6.37;;;1.30;;
1296;SDS011;641;48.492;9.184;2023-12-20T11:49:38;7.80;;;1.40;;
1296;SDS011;641;48.492;9.184;2023-12-20T11:52:04;7.40;;;1.40;;
1296;SDS011;641;48.492;9.184;2023-12-20T11:54:30;6.20;;;1.73;;
1296;SDS011;641;48.492;9.184;2023-12-20T11:56:56;7.17;;;1.47;;
1296;SDS011;641;48.492;9.184;2023-12-20T11:59:21;9.87;;;1.53;;
1296;SDS011;641;48.492;9.184;2023-12-20T12:01:47;10.63;;;2.10;;
1296;SDS011;641;48.492;9.184;2023-12-20T12:04:14;7.00;;;1.30;;
1296;SDS011;641;48.492;9.184;2023-12-20T12:06:40;7.60;;;1.20;;
1296;SDS011;641;48.492;9.184;2023-12-20T12:09:06;10.20;;;1.53;;
1296;SDS011;641;48.492;9.184;2023-12-20T12:11:31;6.50;;;1.33;;
1296;SDS011;641;48.492;9.184;2023-12-20T12:13:57;7.53;;;1.50;;
1296;SDS011;641;48.492;9.184;2023-12-20T12:16:23;6.97;;;1.70;;
1296;SDS011;641;48.492;9.184;2023-12-20T12:18:55;8.33;;;1.40;;
1296;SDS011;641;48.492;9.184;2023-12-20T12:21:22;5.77;;;1.13;;
1296;SDS011;641;48.492;9.184;2023-12-20T12:23:47;6.97;;;1.37;;
1296;SDS011;641;48.492;9.184;2023-12-20T12:26:13;6.53;;;1.50;;
1296;SDS011;641;48.492;9.184;2023-12-20T12:28:42;10.63;;;1.40;;
1296;SDS011;641;48.492;9.184;2023-12-20T12:31:08;7.77;;;1.50;;
1296;SDS011;641;48.492;9.184;2023-12-20T12:33:38;8.63;;;1.33;;
1296;SDS011;641;48.492;9.184;2023-12-20T12:36:04;6.90;;;1.07;;
1296;SDS011;641;48.492;9.184;2023-12-20T12:38:32;7.63;;;1.30;;
1296;SDS011;641;48.492;9.184;2023-12-20T12:40:57;7.00;;;1.00;;
1296;SDS011;641;48.492;9.184;2023-12-20T12:43:23;8.60;;;1.90;;
1296;SDS011;641;48.492;9.184;2023-12-20T12:45:49;9.93;;;2.17;;
1296;SDS011;641;48.492;9.184;2023-12-20T12:48:15;8.37;;;1.80;;
1296;SDS011;641;48.492;9.184;2023-12-20T12:50:40;8.63;;;1.40;;
1296;SDS011;641;48.492;9.184;2023-12-20T12:53:06;9.00;;;1.37;;
1296;SDS011;641;48.492;9.184;2023-12-20T12:55:32;7.97;;;1.70;;
1296;SDS011;641;48.492;9.184;2023-12-20T12:57:59;9.97;;;1.47;;
1296;SDS011;641;48.492;9.184;2023-12-20T13:00:25;8.33;;;1.40;;
1296;SDS011;641;48.492;9.184;2023-12-20T13:02:51;6.67;;;1.27;;
1296;SDS011;641;48.492;9.184;2023-12-20T13:05:16;8.77;;;1.20;;
1296;SDS011;641;48.492;9.184;2023-12-20T13:07:42;8.50;;;1.73;;
1296;SDS011;641;48.492;9.184;2023-12-20T13:10:10;7.67;;;1.70;;
1296;SDS011;641;48.492;9.184;2023-12-20T13:12:36;12.40;;;2.20;;
1296;SDS011;641;48.492;9.184;2023-12-20T13:15:01;10.20;;;1.63;;
1296;SDS011;641;48.492;9.184;2023-12-20T13:17:28;8.73;;;1.60;;
1296;SDS011;641;48.492;9.184;2023-12-20T13:19:54;9.50;;;1.27;;
1296;SDS011;641;48.492;9.184;2023-12-20T13:22:20;11.07;;;1.67;;
1296;SDS011;641;48.492;9.184;2023-12-20T13:24:45;5.93;;;1.17;;
1296;SDS011;641;48.492;9.184;2023-12-20T13:27:11;13.43;;;1.93;;
1296;SDS011;641;48.492;9.184;2023-12-20T13:29:36;10.57;;;1.60;;
1296;SDS011;641;48.492;9.184;2023-12-20T13:32:02;8.60;;;1.33;;
1296;SDS011;641;48.492;9.184;2023-12-20T13:34:28;8.50;;;1.33;;
1296;SDS011;641;48.492;9.184;2023-12-20T13:36:54;9.53;;;2.90;;
1296;SDS011;641;48.492;9.184;2023-12-20T13:39:20;9.20;;;1.73;;
1296;SDS011;641;48.492;9.184;2023-12-20T13:41:46;7.17;;;1.77;;
1296;SDS011;641;48.492;9.184;2023-12-20T13:44:12;13.37;;;3.67;;
1296;SDS011;641;48.492;9.184;2023-12-20T13:46:38;7.80;;;1.30;;
1296;SDS011;641;48.492;9.184;2023-12-20T13:49:04;10.67;;;1.53;;
1296;SDS011;641;48.492;9.184;2023-12-20T13:51:30;6.37;;;1.43;;
1296;SDS011;641;48.492;9.184;2023-12-20T13:53:56;5.90;;;0.90;;
1296;SDS011;641;48.492;9.184;2023-12-20T13:56:22;9.33;;;1.70;;
1296;SDS011;641;48.492;9.184;2023-12-20T13:58:48;11.53;;;1.70;;
1296;SDS011;641;48.492;9.184;2023-12-20T14:01:15;8.23;;;1.60;;
1296;SDS011;641;48.492;9.184;2023-12-20T14:03:45;9.50;;;1.40;;
1296;SDS011;641;48.492;9.184;2023-12-20T14:06:10;8.47;;;1.60;;
1296;SDS011;641;48.492;9.184;2023-12-20T14:08:36;8.10;;;1.57;;
1296;SDS011;641;48.492;9.184;2023-12-20T14:11:02;7.33;;;1.80;;
1296;SDS011;641;48.492;9.184;2023-12-20T14:13:28;8.87;;;1.80;;
1296;SDS011;641;48.492;9.184;2023-12-20T14:15:53;6.53;;;1.33;;
1296;SDS011;641;48.492;9.184;2023-12-20T14:18:19;7.20;;;1.60;;
1296;SDS011;641;48.492;9.184;2023-12-20T14:20:45;7.70;;;1.53;;
1296;SDS011;641;48.492;9.184;2023-12-20T14:23:12;6.73;;;1.30;;
1296;SDS011;641;48.492;9.184;2023-12-20T14:25:39;6.23;;;1.20;;
1296;SDS011;641;48.492;9.184;2023-12-20T14:28:06;7.03;;;1.60;;
1296;SDS011;641;48.492;9.184;2023-12-20T14:30:31;12.30;;;1.93;;
1296;SDS011;641;48.492;9.184;2023-12-20T14:32:57;12.57;;;2.50;;
1296;SDS011;641;48.492;9.184;2023-12-20T14:35:23;9.40;;;1.50;;
1296;SDS011;641;48.492;9.184;2023-12-20T14:37:49;9.33;;;1.70;;
1296;SDS011;641;48.492;9.184;2023-12-20T14:40:15;10.17;;;2.30;;
1296;SDS011;641;48.492;9.184;2023-12-20T14:42:44;7.43;;;1.30;;
1296;SDS011;641;48.492;9.184;2023-12-20T14:45:11;10.63;;;1.50;;
1296;SDS011;641;48.492;9.184;2023-12-20T14:47:38;10.23;;;2.00;;
1296;SDS011;641;48.492;9.184;2023-12-20T14:50:04;13.40;;;2.10;;
1296;SDS011;641;48.492;9.184;2023-12-20T14:52:30;10.90;;;1.80;;
1296;SDS011;641;48.492;9.184;2023-12-20T14:54:58;9.20;;;1.60;;
1296;SDS011;641;48.492;9.184;2023-12-20T14:57:25;11.17;;;2.73;;
1296;SDS011;641;48.492;9.184;2023-12-20T14:59:51;15.13;;;1.80;;
1296;SDS011;641;48.492;9.184;2023-12-20T15:02:17;12.00;;;1.53;;
1296;SDS011;641;48.492;9.184;2023-12-20T15:04:42;8.93;;;1.33;;
1296;SDS011;641;48.492;9.184;2023-12-20T15:07:08;10.83;;;1.57;;
1296;SDS011;641;48.492;9.184;2023-12-20T15:09:33;6.67;;;1.63;;
1296;SDS011;641;48.492;9.184;2023-12-20T15:11:59;11.53;;;2.03;;
1296;SDS011;641;48.492;9.184;2023-12-20T15:14:25;9.23;;;1.50;;
1296;SDS011;641;48.492;9.184;2023-12-20T15:16:51;8.17;;;1.40;;
1296;SDS011;641;48.492;9.184;2023-12-20T15:19:17;7.73;;;1.30;;
1296;SDS011;641;48.492;9.184;2023-12-20T15:21:42;9.03;;;2.90;;
1296;SDS011;641;48.492;9.184;2023-12-20T15:24:08;5.70;;;0.90;;
1296;SDS011;641;48.492;9.184;2023-12-20T15:26:41;9.10;;;1.93;;
1296;SDS011;641;48.492;9.184;2023-12-20T15:29:08;10.17;;;1.57;;